createdAt,value
2019-02-10T00:00:32.636Z,4.00
2019-02-10T00:01:32.598Z,4.00
2019-02-10T00:02:32.587Z,4.00
2019-02-10T00:03:32.578Z,4.00
2019-02-10T00:04:32.566Z,4.00
2019-02-10T00:05:32.577Z,4.00
2019-02-10T00:06:32.540Z,4.00
2019-02-10T00:07:32.531Z,4.00
2019-02-10T00:08:32.518Z,4.00
2019-02-10T00:09:32.506Z,4.00
2019-02-10T00:10:32.523Z,4.00
2019-02-10T00:11:32.486Z,4.00
2019-02-10T00:12:32.478Z,4.00
2019-02-10T00:13:32.468Z,4.00
2019-02-10T00:14:32.457Z,4.00
2019-02-10T00:15:32.467Z,4.00
2019-02-10T00:16:32.431Z,4.00
2019-02-10T00:17:32.421Z,4.00
2019-02-10T00:18:32.420Z,4.00
2019-02-10T00:19:32.398Z,4.00
2019-02-10T00:20:32.411Z,4.00
2019-02-10T00:21:32.377Z,4.00
2019-02-10T00:22:32.364Z,4.00
2019-02-10T00:23:32.375Z,4.00
2019-02-10T00:24:32.346Z,4.00
2019-02-10T00:25:32.412Z,4.00
2019-02-10T00:26:32.323Z,4.00
2019-02-10T00:27:32.312Z,4.00
2019-02-10T00:28:32.302Z,4.00
2019-02-10T00:29:32.290Z,4.00
2019-02-10T00:30:32.302Z,4.00
2019-02-10T00:31:32.267Z,4.00
2019-02-10T00:32:32.254Z,4.00
2019-02-10T00:33:32.249Z,4.00
2019-02-10T00:34:32.234Z,4.00
2019-02-10T00:35:32.248Z,4.00
2019-02-10T00:36:33.540Z,4.00
2019-02-10T00:37:32.204Z,4.00
2019-02-10T00:38:32.193Z,4.00
2019-02-10T00:39:32.178Z,4.00
2019-02-10T00:40:32.199Z,4.00
2019-02-10T00:41:32.156Z,4.00
2019-02-10T00:42:32.145Z,4.00
2019-02-10T00:43:32.157Z,4.00
2019-02-10T00:44:32.124Z,4.00
2019-02-10T00:45:32.139Z,4.00
2019-02-10T00:46:32.102Z,4.00
2019-02-10T00:47:32.094Z,4.00
2019-02-10T00:48:32.079Z,4.00
2019-02-10T00:49:32.071Z,4.00
2019-02-10T00:50:32.083Z,4.00
2019-02-10T00:51:32.046Z,4.00
2019-02-10T00:52:32.034Z,4.00
2019-02-10T00:53:32.027Z,4.00
2019-02-10T00:54:32.016Z,4.00
2019-02-10T00:55:32.029Z,4.00
2019-02-10T00:56:31.991Z,4.00
2019-02-10T00:57:31.979Z,4.00
2019-02-10T00:58:31.973Z,4.00
2019-02-10T00:59:31.960Z,4.00
2019-02-10T01:00:31.973Z,4.00
2019-02-10T01:01:31.939Z,4.00
2019-02-10T01:02:31.927Z,0.00
2019-02-10T01:03:31.918Z,4.00
2019-02-10T01:04:31.909Z,4.00
2019-02-10T01:05:31.928Z,4.00
2019-02-10T01:06:31.899Z,4.00
2019-02-10T01:07:31.874Z,4.00
2019-02-10T01:08:31.862Z,4.00
2019-02-10T01:09:31.851Z,4.00
2019-02-10T01:10:31.865Z,4.00
2019-02-10T01:11:31.832Z,4.00
2019-02-10T01:12:31.819Z,4.00
2019-02-10T01:13:31.847Z,4.00
2019-02-10T01:14:31.794Z,4.00
2019-02-10T01:15:31.809Z,4.00
2019-02-10T01:16:31.778Z,4.00
2019-02-10T01:17:31.770Z,4.00
2019-02-10T01:18:31.752Z,4.00
2019-02-10T01:19:31.749Z,4.00
2019-02-10T01:20:31.756Z,4.00
2019-02-10T01:21:31.722Z,4.00
2019-02-10T01:22:31.709Z,4.00
2019-02-10T01:23:31.698Z,4.00
2019-02-10T01:24:31.686Z,4.00
2019-02-10T01:25:31.701Z,4.00
2019-02-10T01:26:31.702Z,4.00
2019-02-10T01:27:31.655Z,4.00
2019-02-10T01:28:31.644Z,4.00
2019-02-10T01:29:31.637Z,4.00
2019-02-10T01:30:31.646Z,4.00
2019-02-10T01:31:31.610Z,4.00
2019-02-10T01:32:31.601Z,4.00
2019-02-10T01:33:31.588Z,4.00
2019-02-10T01:34:31.584Z,4.00
2019-02-10T01:35:31.592Z,4.00
2019-02-10T01:36:31.556Z,4.00
2019-02-10T01:37:31.546Z,4.00
2019-02-10T01:38:31.537Z,4.00
2019-02-10T01:39:31.544Z,4.00
2019-02-10T01:40:31.540Z,4.00
2019-02-10T01:41:31.502Z,4.00
2019-02-10T01:42:31.492Z,4.00
2019-02-10T01:43:31.480Z,4.00
2019-02-10T01:44:38.512Z,0.00
2019-02-10T01:45:31.483Z,0.00
2019-02-10T01:46:31.449Z,0.00
2019-02-10T01:47:31.439Z,0.00
2019-02-10T01:48:31.427Z,0.00
2019-02-10T01:49:31.420Z,0.00
2019-02-10T01:50:31.432Z,0.00
2019-02-10T01:51:31.398Z,0.00
2019-02-10T01:52:31.387Z,0.00
2019-02-10T01:53:31.379Z,0.00
2019-02-10T01:54:31.370Z,0.00
2019-02-10T01:55:32.937Z,0.00
2019-02-10T01:56:31.347Z,0.00
2019-02-10T01:57:31.335Z,0.00
2019-02-10T01:58:31.325Z,0.00
2019-02-10T01:59:31.314Z,0.00
2019-02-10T02:00:31.329Z,0.00
2019-02-10T02:01:31.292Z,0.00
2019-02-10T02:02:31.285Z,0.00
2019-02-10T02:03:31.270Z,0.00
2019-02-10T02:04:31.263Z,0.00
2019-02-10T02:05:31.281Z,0.00
2019-02-10T02:06:31.238Z,0.00
2019-02-10T02:07:31.229Z,0.00
2019-02-10T02:08:31.221Z,0.00
2019-02-10T02:09:31.212Z,0.00
2019-02-10T02:10:31.222Z,0.00
2019-02-10T02:11:31.189Z,0.00
2019-02-10T02:12:31.176Z,0.00
2019-02-10T02:13:31.163Z,0.00
2019-02-10T02:14:31.156Z,0.00
2019-02-10T02:15:31.168Z,0.00
2019-02-10T02:16:31.131Z,0.00
2019-02-10T02:17:31.129Z,0.00
2019-02-10T02:18:31.111Z,0.00
2019-02-10T02:19:31.100Z,0.00
2019-02-10T02:20:31.118Z,0.00
2019-02-10T02:21:31.075Z,0.00
2019-02-10T02:22:31.072Z,0.00
2019-02-10T02:23:31.058Z,0.00
2019-02-10T02:24:31.049Z,0.00
2019-02-10T02:25:31.060Z,0.00
2019-02-10T02:26:31.024Z,0.00
2019-02-10T02:27:31.014Z,0.00
2019-02-10T02:28:31.003Z,0.00
2019-02-10T02:29:30.990Z,0.00
2019-02-10T02:30:31.007Z,0.00
2019-02-10T02:31:30.971Z,0.00
2019-02-10T02:32:30.959Z,0.00
2019-02-10T02:33:30.949Z,0.00
2019-02-10T02:34:30.935Z,0.00
2019-02-10T02:35:30.952Z,0.00
2019-02-10T02:36:30.927Z,0.00
2019-02-10T02:37:30.904Z,0.00
2019-02-10T02:38:30.891Z,0.00
2019-02-10T02:39:30.887Z,0.00
2019-02-10T02:40:30.896Z,0.00
2019-02-10T02:41:30.860Z,0.00
2019-02-10T02:42:30.853Z,0.00
2019-02-10T02:43:30.841Z,0.00
2019-02-10T02:44:30.828Z,0.00
2019-02-10T02:45:30.843Z,0.00
2019-02-10T02:46:30.805Z,0.00
2019-02-10T02:47:30.808Z,0.00
2019-02-10T02:48:30.823Z,0.00
2019-02-10T02:49:30.772Z,0.00
2019-02-10T02:50:30.794Z,0.00
2019-02-10T02:51:30.757Z,0.00
2019-02-10T02:52:30.741Z,0.00
2019-02-10T02:53:30.728Z,0.00
2019-02-10T02:54:30.718Z,0.00
2019-02-10T02:55:30.771Z,0.00
2019-02-10T02:56:30.696Z,0.00
2019-02-10T02:57:30.687Z,0.00
2019-02-10T02:58:30.675Z,0.00
2019-02-10T02:59:30.663Z,0.00
2019-02-10T03:00:30.654Z,0.00
2019-02-10T03:01:30.666Z,0.00
2019-02-10T03:02:30.633Z,0.00
2019-02-10T03:03:30.621Z,0.00
2019-02-10T03:04:30.619Z,0.00
2019-02-10T03:05:30.627Z,0.00
2019-02-10T03:06:30.589Z,0.00
2019-02-10T03:07:30.578Z,0.00
2019-02-10T03:08:30.565Z,0.00
2019-02-10T03:09:30.559Z,0.00
2019-02-10T03:10:30.593Z,0.00
2019-02-10T03:11:30.534Z,0.00
2019-02-10T03:12:30.522Z,0.00
2019-02-10T03:13:30.512Z,0.00
2019-02-10T03:14:30.506Z,0.00
2019-02-10T03:15:30.518Z,0.00
2019-02-10T03:16:30.479Z,0.00
2019-02-10T03:17:30.471Z,0.00
2019-02-10T03:18:30.457Z,0.00
2019-02-10T03:19:30.445Z,0.00
2019-02-10T03:20:30.463Z,0.00
2019-02-10T03:21:30.426Z,0.00
2019-02-10T03:22:30.417Z,0.00
2019-02-10T03:23:30.401Z,0.00
2019-02-10T03:24:30.391Z,0.00
2019-02-10T03:25:30.404Z,0.00
2019-02-10T03:26:30.372Z,0.00
2019-02-10T03:27:30.359Z,0.00
2019-02-10T03:28:30.350Z,0.00
2019-02-10T03:29:30.336Z,0.00
2019-02-10T03:30:30.351Z,0.00
2019-02-10T03:31:30.327Z,0.00
2019-02-10T03:32:30.304Z,0.00
2019-02-10T03:33:30.294Z,0.00
2019-02-10T03:34:30.282Z,0.00
2019-02-10T03:35:30.297Z,0.00
2019-02-10T03:36:30.258Z,0.00
2019-02-10T03:37:30.268Z,0.00
2019-02-10T03:38:30.237Z,0.00
2019-02-10T03:39:30.230Z,0.00
2019-02-10T03:40:30.239Z,0.00
2019-02-10T03:41:30.205Z,0.00
2019-02-10T03:42:30.193Z,0.00
2019-02-10T03:43:30.185Z,0.00
2019-02-10T03:44:30.170Z,0.00
2019-02-10T03:45:30.188Z,0.00
2019-02-10T03:46:30.150Z,0.00
2019-02-10T03:47:30.144Z,0.00
2019-02-10T03:48:30.131Z,0.00
2019-02-10T03:49:30.117Z,0.00
2019-02-10T03:50:30.132Z,0.00
2019-02-10T03:51:30.103Z,0.00
2019-02-10T03:52:30.084Z,0.00
2019-02-10T03:53:30.075Z,0.00
2019-02-10T03:54:30.063Z,0.00
2019-02-10T03:55:30.077Z,0.00
2019-02-10T03:56:30.042Z,0.00
2019-02-10T03:57:30.029Z,0.00
2019-02-10T03:58:30.019Z,0.00
2019-02-10T03:59:30.008Z,0.00
2019-02-10T04:00:30.027Z,0.00
2019-02-10T04:01:29.985Z,0.00
2019-02-10T04:02:29.983Z,0.00
2019-02-10T04:03:29.966Z,0.00
2019-02-10T04:04:29.959Z,0.00
2019-02-10T04:05:29.972Z,0.00
2019-02-10T04:06:29.933Z,0.00
2019-02-10T04:07:35.896Z,0.00
2019-02-10T04:08:30.912Z,0.00
2019-02-10T04:09:29.934Z,0.00
2019-02-10T04:10:29.915Z,0.00
2019-02-10T04:11:29.877Z,0.00
2019-02-10T04:12:29.868Z,0.00
2019-02-10T04:13:29.857Z,0.00
2019-02-10T04:14:29.844Z,0.00
2019-02-10T04:15:29.886Z,0.00
2019-02-10T04:16:29.823Z,0.00
2019-02-10T04:17:29.816Z,0.00
2019-02-10T04:18:29.808Z,0.00
2019-02-10T04:19:29.794Z,0.00
2019-02-10T04:20:29.808Z,0.00
2019-02-10T04:21:29.771Z,0.00
2019-02-10T04:22:29.764Z,0.00
2019-02-10T04:23:29.751Z,0.00
2019-02-10T04:24:29.739Z,0.00
2019-02-10T04:25:29.751Z,0.00
2019-02-10T04:26:29.717Z,0.00
2019-02-10T04:27:29.706Z,0.00
2019-02-10T04:28:29.727Z,0.00
2019-02-10T04:29:29.682Z,0.00
2019-02-10T04:30:29.697Z,0.00
2019-02-10T04:31:29.663Z,0.00
2019-02-10T04:32:29.650Z,0.00
2019-02-10T04:33:29.639Z,0.00
2019-02-10T04:34:29.629Z,0.00
2019-02-10T04:35:29.646Z,0.00
2019-02-10T04:36:29.608Z,0.00
2019-02-10T04:37:29.597Z,0.00
2019-02-10T04:38:29.589Z,0.00
2019-02-10T04:39:29.575Z,0.00
2019-02-10T04:40:29.590Z,0.00
2019-02-10T04:41:29.554Z,0.00
2019-02-10T04:42:29.544Z,0.00
2019-02-10T04:43:29.534Z,0.00
2019-02-10T04:44:29.524Z,0.00
2019-02-10T04:45:29.537Z,0.00
2019-02-10T04:46:29.504Z,0.00
2019-02-10T04:47:29.490Z,0.00
2019-02-10T04:48:29.483Z,0.00
2019-02-10T04:49:29.471Z,0.00
2019-02-10T04:50:29.486Z,0.00
2019-02-10T04:51:29.449Z,0.00
2019-02-10T04:52:29.437Z,0.00
2019-02-10T04:53:29.428Z,0.00
2019-02-10T04:54:29.417Z,0.00
2019-02-10T04:55:29.431Z,0.00
2019-02-10T04:56:29.393Z,0.00
2019-02-10T04:57:29.384Z,0.00
2019-02-10T04:58:29.372Z,0.00
2019-02-10T04:59:29.367Z,0.00
2019-02-10T05:00:29.378Z,0.00
2019-02-10T05:01:29.340Z,0.00
2019-02-10T05:02:29.354Z,0.00
2019-02-10T05:03:29.318Z,0.00
2019-02-10T05:04:29.314Z,0.00
2019-02-10T05:05:29.322Z,0.00
2019-02-10T05:06:29.287Z,0.00
2019-02-10T05:07:29.276Z,0.00
2019-02-10T05:08:29.266Z,0.00
2019-02-10T05:09:29.255Z,0.00
2019-02-10T05:10:29.269Z,0.00
2019-02-10T05:11:29.243Z,0.00
2019-02-10T05:12:29.222Z,0.00
2019-02-10T05:13:29.214Z,0.00
2019-02-10T05:14:29.211Z,0.00
2019-02-10T05:15:29.225Z,0.00
2019-02-10T05:16:29.182Z,0.00
2019-02-10T05:17:29.169Z,0.00
2019-02-10T05:18:29.158Z,0.00
2019-02-10T05:19:29.148Z,0.00
2019-02-10T05:20:29.137Z,0.00
2019-02-10T05:21:29.151Z,0.00
2019-02-10T05:22:29.122Z,0.00
2019-02-10T05:23:29.108Z,0.00
2019-02-10T05:24:29.097Z,0.00
2019-02-10T05:25:29.107Z,0.00
2019-02-10T05:26:29.072Z,0.00
2019-02-10T05:27:29.065Z,0.00
2019-02-10T05:28:29.063Z,0.00
2019-02-10T05:29:29.041Z,0.00
2019-02-10T05:30:29.053Z,0.00
2019-02-10T05:31:29.018Z,0.00
2019-02-10T05:32:29.008Z,0.00
2019-02-10T05:33:28.997Z,0.00
2019-02-10T05:34:28.983Z,0.00
2019-02-10T05:35:29.014Z,0.00
2019-02-10T05:36:28.965Z,0.00
2019-02-10T05:37:28.952Z,0.00
2019-02-10T05:38:28.939Z,0.00
2019-02-10T05:39:28.931Z,0.00
2019-02-10T05:40:28.920Z,0.00
2019-02-10T05:41:28.933Z,0.00
2019-02-10T05:42:28.902Z,0.00
2019-02-10T05:43:28.889Z,0.00
2019-02-10T05:44:28.876Z,0.00
2019-02-10T05:45:28.892Z,0.00
2019-02-10T05:46:28.871Z,0.00
2019-02-10T05:47:28.845Z,0.00
2019-02-10T05:48:28.849Z,0.00
2019-02-10T05:49:28.821Z,0.00
2019-02-10T05:50:28.838Z,0.00
2019-02-10T05:51:28.803Z,0.00
2019-02-10T05:52:28.794Z,0.00
2019-02-10T05:53:28.778Z,0.00
2019-02-10T05:54:28.770Z,0.00
2019-02-10T05:55:28.782Z,0.00
2019-02-10T05:56:28.745Z,0.00
2019-02-10T05:57:28.737Z,0.00
2019-02-10T05:58:28.724Z,0.00
2019-02-10T05:59:28.719Z,0.00
2019-02-10T06:00:28.728Z,0.00
2019-02-10T06:01:28.692Z,0.00
2019-02-10T06:02:28.680Z,0.00
2019-02-10T06:03:28.670Z,0.00
2019-02-10T06:04:28.681Z,0.00
2019-02-10T06:05:28.677Z,0.00
2019-02-10T06:06:28.642Z,0.00
2019-02-10T06:07:28.627Z,0.00
2019-02-10T06:08:28.614Z,0.00
2019-02-10T06:09:28.605Z,0.00
2019-02-10T06:10:28.618Z,0.00
2019-02-10T06:11:28.585Z,0.00
2019-02-10T06:12:28.571Z,4.00
2019-02-10T06:13:28.561Z,4.00
2019-02-10T06:14:28.551Z,4.00
2019-02-10T06:15:28.564Z,0.00
2019-02-10T06:16:28.535Z,4.00
2019-02-10T06:17:28.518Z,4.00
2019-02-10T06:18:28.509Z,4.00
2019-02-10T06:19:28.498Z,4.00
2019-02-10T06:20:28.515Z,8.00
2019-02-10T06:21:28.476Z,4.00
2019-02-10T06:22:28.463Z,8.00
2019-02-10T06:23:28.456Z,8.00
2019-02-10T06:24:28.445Z,8.00
2019-02-10T06:25:28.459Z,12.00
2019-02-10T06:26:28.420Z,8.00
2019-02-10T06:27:28.410Z,12.00
2019-02-10T06:28:28.399Z,12.00
2019-02-10T06:29:28.388Z,16.00
2019-02-10T06:30:28.407Z,16.00
2019-02-10T06:31:28.369Z,20.00
2019-02-10T06:32:28.361Z,24.00
2019-02-10T06:33:28.347Z,20.00
2019-02-10T06:34:28.332Z,24.00
2019-02-10T06:35:28.345Z,24.00
2019-02-10T06:36:28.314Z,28.00
2019-02-10T06:37:28.301Z,32.00
2019-02-10T06:38:28.289Z,32.00
2019-02-10T06:39:28.281Z,36.00
2019-02-10T06:40:28.291Z,36.00
2019-02-10T06:41:28.255Z,40.00
2019-02-10T06:42:28.244Z,44.00
2019-02-10T06:43:28.234Z,44.00
2019-02-10T06:44:28.223Z,44.00
2019-02-10T06:45:28.237Z,48.00
2019-02-10T06:46:28.200Z,48.00
2019-02-10T06:47:28.191Z,56.00
2019-02-10T06:48:28.181Z,60.00
2019-02-10T06:49:28.171Z,60.00
2019-02-10T06:50:28.184Z,68.00
2019-02-10T06:51:28.147Z,68.00
2019-02-10T06:52:28.135Z,72.00
2019-02-10T06:53:28.125Z,80.00
2019-02-10T06:54:28.117Z,84.00
2019-02-10T06:55:28.128Z,92.00
2019-02-10T06:56:28.094Z,96.00
2019-02-10T06:57:28.080Z,100.00
2019-02-10T06:58:28.069Z,108.00
2019-02-10T06:59:28.062Z,112.00
2019-02-10T07:00:28.074Z,116.00
2019-02-10T07:01:28.039Z,124.00
2019-02-10T07:02:28.028Z,132.00
2019-02-10T07:03:28.018Z,136.00
2019-02-10T07:04:28.006Z,144.00
2019-02-10T07:05:28.020Z,156.00
2019-02-10T07:06:27.982Z,164.00
2019-02-10T07:07:27.972Z,172.00
2019-02-10T07:08:30.571Z,184.00
2019-02-10T07:09:27.950Z,188.00
2019-02-10T07:10:27.964Z,196.00
2019-02-10T07:11:27.930Z,204.00
2019-02-10T07:12:27.919Z,212.00
2019-02-10T07:13:27.909Z,220.00
2019-02-10T07:14:27.897Z,228.00
2019-02-10T07:15:27.913Z,232.00
2019-02-10T07:16:27.874Z,240.00
2019-02-10T07:17:27.862Z,248.00
2019-02-10T07:18:27.862Z,256.00
2019-02-10T07:19:27.842Z,264.00
2019-02-10T07:20:27.858Z,276.00
2019-02-10T07:21:28.769Z,284.00
2019-02-10T07:22:27.810Z,300.00
2019-02-10T07:23:27.799Z,308.00
2019-02-10T07:24:27.789Z,316.00
2019-02-10T07:25:27.806Z,316.00
2019-02-10T07:26:27.767Z,316.00
2019-02-10T07:27:27.755Z,316.00
2019-02-10T07:28:27.744Z,308.00
2019-02-10T07:29:27.734Z,296.00
2019-02-10T07:30:27.746Z,288.00
2019-02-10T07:31:27.716Z,272.00
2019-02-10T07:32:27.699Z,256.00
2019-02-10T07:33:27.689Z,248.00
2019-02-10T07:34:27.679Z,240.00
2019-02-10T07:35:27.697Z,236.00
2019-02-10T07:36:27.659Z,236.00
2019-02-10T07:37:27.648Z,232.00
2019-02-10T07:38:27.637Z,220.00
2019-02-10T07:39:27.627Z,200.00
2019-02-10T07:40:27.648Z,180.00
2019-02-10T07:41:27.610Z,176.00
2019-02-10T07:42:27.595Z,188.00
2019-02-10T07:43:27.583Z,204.00
2019-02-10T07:44:27.574Z,220.00
2019-02-10T07:45:34.637Z,232.00
2019-02-10T07:46:27.553Z,252.00
2019-02-10T07:47:27.541Z,272.00
2019-02-10T07:48:27.530Z,296.00
2019-02-10T07:49:27.519Z,316.00
2019-02-10T07:50:27.531Z,332.00
2019-02-10T07:51:27.498Z,348.00
2019-02-10T07:52:27.486Z,368.00
2019-02-10T07:53:27.479Z,388.00
2019-02-10T07:54:27.467Z,412.00
2019-02-10T07:55:27.480Z,432.00
2019-02-10T07:56:28.795Z,440.00
2019-02-10T07:57:27.433Z,440.00
2019-02-10T07:58:27.424Z,440.00
2019-02-10T07:59:27.413Z,440.00
2019-02-10T08:00:27.438Z,452.00
2019-02-10T08:01:27.392Z,464.00
2019-02-10T08:02:27.383Z,472.00
2019-02-10T08:03:27.372Z,472.00
2019-02-10T08:04:27.360Z,472.00
2019-02-10T08:05:27.384Z,476.00
2019-02-10T08:06:27.338Z,484.00
2019-02-10T08:07:27.330Z,468.00
2019-02-10T08:08:27.333Z,412.00
2019-02-10T08:09:27.310Z,336.00
2019-02-10T08:10:27.331Z,304.00
2019-02-10T08:11:27.286Z,304.00
2019-02-10T08:12:27.277Z,316.00
2019-02-10T08:13:27.267Z,344.00
2019-02-10T08:14:27.257Z,364.00
2019-02-10T08:15:27.280Z,412.00
2019-02-10T08:16:27.233Z,424.00
2019-02-10T08:17:27.224Z,432.00
2019-02-10T08:18:27.212Z,444.00
2019-02-10T08:19:27.200Z,480.00
2019-02-10T08:20:27.216Z,480.00
2019-02-10T08:21:27.182Z,456.00
2019-02-10T08:22:27.171Z,464.00
2019-02-10T08:23:27.163Z,432.00
2019-02-10T08:24:27.148Z,432.00
2019-02-10T08:25:27.185Z,400.00
2019-02-10T08:26:28.580Z,372.00
2019-02-10T08:27:27.118Z,396.00
2019-02-10T08:28:27.112Z,404.00
2019-02-10T08:29:27.096Z,420.00
2019-02-10T08:30:27.087Z,428.00
2019-02-10T08:31:27.101Z,436.00
2019-02-10T08:32:27.067Z,420.00
2019-02-10T08:33:27.057Z,420.00
2019-02-10T08:34:27.043Z,424.00
2019-02-10T08:35:27.455Z,432.00
2019-02-10T08:36:27.021Z,416.00
2019-02-10T08:37:27.018Z,412.00
2019-02-10T08:38:27.002Z,432.00
2019-02-10T08:39:26.990Z,432.00
2019-02-10T08:40:27.005Z,444.00
2019-02-10T08:41:26.970Z,468.00
2019-02-10T08:42:26.962Z,516.00
2019-02-10T08:43:26.951Z,560.00
2019-02-10T08:44:26.969Z,584.00
2019-02-10T08:45:26.951Z,592.00
2019-02-10T08:46:26.914Z,568.00
2019-02-10T08:47:33.581Z,536.00
2019-02-10T08:48:27.894Z,512.00
2019-02-10T08:49:26.893Z,492.00
2019-02-10T08:50:26.899Z,476.00
2019-02-10T08:51:26.883Z,448.00
2019-02-10T08:52:26.850Z,432.00
2019-02-10T08:53:26.842Z,428.00
2019-02-10T08:54:26.830Z,428.00
2019-02-10T08:55:26.845Z,456.00
2019-02-10T08:56:26.809Z,484.00
2019-02-10T08:57:26.799Z,496.00
2019-02-10T08:58:26.787Z,480.00
2019-02-10T08:59:26.779Z,440.00
2019-02-10T09:00:26.788Z,404.00
2019-02-10T09:01:26.755Z,364.00
2019-02-10T09:02:26.745Z,316.00
2019-02-10T09:03:26.732Z,292.00
2019-02-10T09:04:26.730Z,284.00
2019-02-10T09:05:26.740Z,284.00
2019-02-10T09:06:26.703Z,272.00
2019-02-10T09:07:26.690Z,264.00
2019-02-10T09:08:26.680Z,256.00
2019-02-10T09:09:26.673Z,256.00
2019-02-10T09:10:26.683Z,248.00
2019-02-10T09:11:26.666Z,276.00
2019-02-10T09:12:26.634Z,280.00
2019-02-10T09:13:26.630Z,296.00
2019-02-10T09:14:26.615Z,292.00
2019-02-10T09:15:26.629Z,300.00
2019-02-10T09:16:26.593Z,320.00
2019-02-10T09:17:26.580Z,320.00
2019-02-10T09:18:26.570Z,328.00
2019-02-10T09:19:26.566Z,352.00
2019-02-10T09:20:26.587Z,392.00
2019-02-10T09:21:26.536Z,376.00
2019-02-10T09:22:26.527Z,400.00
2019-02-10T09:23:26.519Z,404.00
2019-02-10T09:24:26.505Z,424.00
2019-02-10T09:25:26.495Z,464.00
2019-02-10T09:26:26.523Z,480.00
2019-02-10T09:27:26.472Z,492.00
2019-02-10T09:28:26.461Z,504.00
2019-02-10T09:29:26.460Z,496.00
2019-02-10T09:30:26.444Z,476.00
2019-02-10T09:31:26.428Z,468.00
2019-02-10T09:32:26.442Z,440.00
2019-02-10T09:33:26.405Z,440.00
2019-02-10T09:34:26.405Z,420.00
2019-02-10T09:35:26.383Z,396.00
2019-02-10T09:36:26.373Z,424.00
2019-02-10T09:37:26.404Z,432.00
2019-02-10T09:38:26.351Z,448.00
2019-02-10T09:39:26.341Z,468.00
2019-02-10T09:40:26.332Z,444.00
2019-02-10T09:41:26.317Z,452.00
2019-02-10T09:42:26.307Z,468.00
2019-02-10T09:43:26.330Z,476.00
2019-02-10T09:44:26.288Z,468.00
2019-02-10T09:45:26.277Z,476.00
2019-02-10T09:46:26.262Z,496.00
2019-02-10T09:47:26.261Z,488.00
2019-02-10T09:48:26.242Z,460.00
2019-02-10T09:49:26.253Z,444.00
2019-02-10T09:50:26.223Z,440.00
2019-02-10T09:51:26.218Z,432.00
2019-02-10T09:52:26.201Z,436.00
2019-02-10T09:53:26.186Z,444.00
2019-02-10T09:54:26.217Z,488.00
2019-02-10T09:55:26.164Z,508.00
2019-02-10T09:56:26.154Z,516.00
2019-02-10T09:57:26.147Z,540.00
2019-02-10T09:58:26.133Z,552.00
2019-02-10T09:59:26.122Z,568.00
2019-02-10T10:00:26.135Z,564.00
2019-02-10T10:01:26.103Z,560.00
2019-02-10T10:02:26.090Z,560.00
2019-02-10T10:03:26.077Z,556.00
2019-02-10T10:04:26.070Z,564.00
2019-02-10T10:05:26.082Z,560.00
2019-02-10T10:06:26.053Z,560.00
2019-02-10T10:07:26.038Z,564.00
2019-02-10T10:08:26.029Z,564.00
2019-02-10T10:09:26.015Z,572.00
2019-02-10T10:10:26.035Z,572.00
2019-02-10T10:11:25.991Z,564.00
2019-02-10T10:12:25.980Z,584.00
2019-02-10T10:13:25.969Z,576.00
2019-02-10T10:14:30.860Z,556.00
2019-02-10T10:15:26.992Z,532.00
2019-02-10T10:16:25.939Z,508.00
2019-02-10T10:17:25.927Z,484.00
2019-02-10T10:18:25.918Z,472.00
2019-02-10T10:19:25.906Z,484.00
2019-02-10T10:20:25.904Z,484.00
2019-02-10T10:21:25.913Z,480.00
2019-02-10T10:22:25.874Z,472.00
2019-02-10T10:23:25.882Z,472.00
2019-02-10T10:24:25.852Z,476.00
2019-02-10T10:25:25.841Z,476.00
2019-02-10T10:26:25.868Z,500.00
2019-02-10T10:27:25.819Z,516.00
2019-02-10T10:28:25.810Z,516.00
2019-02-10T10:29:25.911Z,516.00
2019-02-10T10:30:25.788Z,512.00
2019-02-10T10:31:25.776Z,476.00
2019-02-10T10:32:25.804Z,460.00
2019-02-10T10:33:25.755Z,444.00
2019-02-10T10:34:25.747Z,424.00
2019-02-10T10:35:25.734Z,420.00
2019-02-10T10:36:25.723Z,428.00
2019-02-10T10:37:25.712Z,436.00
2019-02-10T10:38:25.739Z,440.00
2019-02-10T10:39:27.468Z,448.00
2019-02-10T10:40:25.685Z,444.00
2019-02-10T10:41:25.669Z,460.00
2019-02-10T10:42:25.666Z,492.00
2019-02-10T10:43:25.650Z,488.00
2019-02-10T10:44:25.724Z,448.00
2019-02-10T10:45:25.628Z,448.00
2019-02-10T10:46:25.616Z,468.00
2019-02-10T10:47:25.606Z,464.00
2019-02-10T10:48:25.594Z,452.00
2019-02-10T10:49:25.622Z,440.00
2019-02-10T10:50:25.600Z,436.00
2019-02-10T10:51:25.564Z,428.00
2019-02-10T10:52:25.552Z,428.00
2019-02-10T10:53:25.558Z,424.00
2019-02-10T10:54:25.532Z,416.00
2019-02-10T10:55:25.569Z,420.00
2019-02-10T10:56:25.510Z,424.00
2019-02-10T10:57:25.498Z,420.00
2019-02-10T10:58:25.485Z,420.00
2019-02-10T10:59:25.479Z,392.00
2019-02-10T11:00:25.492Z,380.00
2019-02-10T11:01:25.681Z,372.00
2019-02-10T11:02:25.446Z,368.00
2019-02-10T11:03:25.432Z,344.00
2019-02-10T11:04:25.421Z,340.00
2019-02-10T11:05:25.441Z,332.00
2019-02-10T11:06:25.409Z,320.00
2019-02-10T11:07:25.390Z,320.00
2019-02-10T11:08:25.378Z,316.00
2019-02-10T11:09:25.366Z,324.00
2019-02-10T11:10:25.381Z,336.00
2019-02-10T11:11:25.347Z,356.00
2019-02-10T11:12:25.335Z,356.00
2019-02-10T11:13:25.339Z,356.00
2019-02-10T11:14:25.322Z,384.00
2019-02-10T11:15:25.326Z,416.00
2019-02-10T11:16:25.292Z,416.00
2019-02-10T11:17:25.336Z,424.00
2019-02-10T11:18:25.268Z,424.00
2019-02-10T11:19:25.259Z,436.00
2019-02-10T11:20:25.272Z,424.00
2019-02-10T11:21:25.241Z,436.00
2019-02-10T11:22:25.224Z,424.00
2019-02-10T11:23:25.213Z,440.00
2019-02-10T11:24:28.735Z,444.00
2019-02-10T11:25:25.217Z,448.00
2019-02-10T11:26:25.200Z,452.00
2019-02-10T11:27:25.176Z,436.00
2019-02-10T11:28:25.173Z,432.00
2019-02-10T11:29:25.168Z,428.00
2019-02-10T11:30:25.169Z,456.00
2019-02-10T11:31:25.127Z,452.00
2019-02-10T11:32:25.126Z,432.00
2019-02-10T11:33:25.106Z,460.00
2019-02-10T11:34:25.094Z,480.00
2019-02-10T11:35:25.108Z,444.00
2019-02-10T11:36:25.072Z,436.00
2019-02-10T11:37:26.867Z,432.00
2019-02-10T11:38:25.051Z,388.00
2019-02-10T11:39:25.040Z,396.00
2019-02-10T11:40:25.053Z,440.00
2019-02-10T11:41:25.017Z,488.00
2019-02-10T11:42:25.008Z,528.00
2019-02-10T11:43:25.393Z,568.00
2019-02-10T11:44:24.987Z,576.00
2019-02-10T11:45:25.014Z,620.00
2019-02-10T11:46:24.991Z,660.00
2019-02-10T11:47:24.961Z,652.00
2019-02-10T11:48:24.941Z,600.00
2019-02-10T11:49:24.933Z,544.00
2019-02-10T11:50:24.923Z,580.00
2019-02-10T11:51:24.933Z,600.00
2019-02-10T11:52:24.913Z,580.00
2019-02-10T11:53:24.888Z,612.00
2019-02-10T11:54:24.882Z,628.00
2019-02-10T11:55:24.865Z,612.00
2019-02-10T11:56:24.898Z,568.00
2019-02-10T11:57:24.919Z,648.00
2019-02-10T11:58:24.837Z,732.00
2019-02-10T11:59:24.845Z,700.00
2019-02-10T12:00:24.818Z,724.00
2019-02-10T12:01:24.802Z,840.00
2019-02-10T12:02:24.828Z,840.00
2019-02-10T12:03:24.789Z,800.00
2019-02-10T12:04:24.769Z,792.00
2019-02-10T12:05:24.762Z,784.00
2019-02-10T12:06:24.750Z,740.00
2019-02-10T12:07:24.745Z,692.00
2019-02-10T12:08:24.752Z,732.00
2019-02-10T12:09:24.727Z,732.00
2019-02-10T12:10:24.706Z,708.00
2019-02-10T12:11:24.695Z,676.00
2019-02-10T12:12:24.691Z,644.00
2019-02-10T12:13:24.700Z,656.00
2019-02-10T12:14:24.689Z,592.00
2019-02-10T12:15:24.654Z,592.00
2019-02-10T12:16:24.643Z,564.00
2019-02-10T12:17:24.633Z,576.00
2019-02-10T12:18:24.671Z,640.00
2019-02-10T12:19:24.618Z,676.00
2019-02-10T12:20:24.603Z,676.00
2019-02-10T12:21:24.594Z,768.00
2019-02-10T12:22:24.584Z,728.00
2019-02-10T12:23:24.569Z,620.00
2019-02-10T12:24:24.598Z,576.00
2019-02-10T12:25:24.548Z,564.00
2019-02-10T12:26:24.544Z,568.00
2019-02-10T12:27:24.526Z,532.00
2019-02-10T12:28:24.518Z,516.00
2019-02-10T12:29:24.507Z,496.00
2019-02-10T12:30:24.519Z,524.00
2019-02-10T12:31:24.525Z,552.00
2019-02-10T12:32:24.491Z,532.00
2019-02-10T12:33:24.465Z,532.00
2019-02-10T12:34:24.452Z,512.00
2019-02-10T12:35:24.469Z,492.00
2019-02-10T12:36:24.432Z,460.00
2019-02-10T12:37:32.070Z,508.00
2019-02-10T12:38:25.410Z,564.00
2019-02-10T12:39:24.400Z,596.00
2019-02-10T12:40:24.418Z,628.00
2019-02-10T12:41:24.385Z,640.00
2019-02-10T12:42:24.368Z,596.00
2019-02-10T12:43:24.357Z,564.00
2019-02-10T12:44:24.346Z,536.00
2019-02-10T12:45:24.362Z,524.00
2019-02-10T12:46:24.329Z,528.00
2019-02-10T12:47:24.319Z,508.00
2019-02-10T12:48:24.306Z,496.00
2019-02-10T12:49:24.297Z,504.00
2019-02-10T12:50:24.322Z,512.00
2019-02-10T12:51:24.274Z,532.00
2019-02-10T12:52:24.275Z,540.00
2019-02-10T12:53:24.255Z,536.00